Arbyrd, MO

3:12 PM CDT on April 25, 2015 (GMT -0500)
KC0UFP WX | | Change Station
CLOSE
Current Station
Personal Weather Station
Location: Kennett, MO
Elevation: 262 ft
Nearby Weather Stations
Active Advisory: Wind Advisory

Elev 262 ft 36.21 °N, 90.07 °W | Updated 4 minutes ago

Clear
Clear
79.9 °F
Feels Like 82 °F
N
13.0
Wind Variable Wind from SSE

Today
High -- | Low -- °F
--% Chance of Precip.
Yesterday
High -- | Low -- °F
Precip. -- in
6:15 AM 7:42 PM
Waxing Crescent, 48% visible
Pressure 29.54 in
Visibility 10.0 miles
Clouds Clear
Heat Index 82 °F
Dew Point 68 °F
Humidity 66%
Rainfall 0.00 in
Snow Depth Not available.
UV 9 out of 12
Pollen 3.70 out of 12
Air Quality Not available.
Flu Activity Local Activity
METAR KHKA 251953Z AUTO 23013G23KT 10SM CLR 26/18 A2954 RMK AO2 PK WND 22029/1906 SLP001 T02610178

More Conditions Fewer Conditions

Pressure 29.54 in
Visibility 10.0 miles
Clouds Clear
Heat Index 82 °F
Dew Point 68 °F
Humidity 66%
Rainfall 0.00 in
Snow Depth Not available.
UV 9 out of 12
Pollen 3.70 out of 12
Air Quality Not available.
Flu Activity Local Activity
METAR KHKA 251953Z AUTO 23013G23KT 10SM CLR 26/18 A2954 RMK AO2 PK WND 22029/1906 SLP001 T02610178

More Conditions Fewer Conditions

10-Day Weather Forecast

Almanac

Astronomy

Apr. 25, 2015 Rise Set
Actual Time
Civil Twilight
Nautical Twilight
Astronomical Twilight
Moon
Length of Visible Light
Length of Day
Tomorrow will be .
, % of the Moon is Illuminated

Today's Extremes

State Highs State Lows

Community

WunderPhotos

Upload Photos

1,816,794 photos uploaded!

WunderBlogs® & News

Nearby

Air Quality

  Air Quality AQ Index Pollutant
Not available.

Snow Depth

Station Depth Elevation

Earthquake Activity

City Distance Mag. Time & Date
Minimum magnitude displayed is 2.5.

Coastal Water Temperatures

Place Temperature

Stations

Nearby Weather Stations

Station Location Temp. Windchill Dew Point Humidity Wind Precip. Elev Updated Type
                   
Wind Advisory
Statement as of 2:25 PM CDT on April 25, 2015

... Wind Advisory remains in effect until 7 PM CDT this evening...

* winds... southwest winds of 20 to 25 mph... gusting to 40 mph.

* Timing... current through 7 PM dst this evening.

* Impacts... loose outdoor items will be vulnerable to the wind.
Working on elevated surfaces will be hazardous... and driving
may become difficult... especially for high profile vehicles.

Precautionary/preparedness actions...

A Wind Advisory means that sustained winds of 25 to 39 mph are
expected... or gusts will range between 40 and 57 mph. Winds this
strong can make driving difficult... especially for high profile
vehicles. Use extra caution.



Jab